Annapolis Junction, MD

3:34 PM EDT on September 17, 2014 (GMT -0400)
Savage | Change Station
CLOSE
Current Station
Personal Weather Station
Location: Laurel, MD
Elevation: 219 ft
Nearby Weather Stations

Elev 219 ft 39.13 °N, 76.83 °W | Updated 10 seconds ago

Scattered Clouds
Scattered Clouds
78.1 °F
Feels Like 78 °F
N
1.0
Wind Variable Wind from South
Gusts 0.0 mph

Today
High -- | Low -- °F
--% Chance of Precip.
Yesterday
High -- | Low -- °F
Precip. -- in
6:50 AM 7:12 PM
Waning Crescent, 33% visible
Pressure 30.00 in
Visibility 10.0 miles
Clouds Scattered Clouds 6000 ft
Heat Index 78 °F
Dew Point 36 °F
Humidity 22%
Rainfall 0.00 in
Snow Depth Not available.
UV 1.0 out of 12
Pollen 4.20 out of 12
Air Quality Not available.
Flu Activity Not available.
METAR KFME 171915Z AUTO 18003KT 10SM SCT060 22/10 A3000 RMK AO1

More Conditions Fewer Conditions

Pressure 30.00 in
Visibility 10.0 miles
Clouds Scattered Clouds 6000 ft
Heat Index 78 °F
Dew Point 36 °F
Humidity 22%
Rainfall 0.00 in
Snow Depth Not available.
UV 1.0 out of 12
Pollen 4.20 out of 12
Air Quality Not available.
Flu Activity Not available.
METAR KFME 171915Z AUTO 18003KT 10SM SCT060 22/10 A3000 RMK AO1

More Conditions Fewer Conditions

10-Day Weather Forecast

Almanac

Astronomy

Sep. 17, 2014 Rise Set
Actual Time 6:50 AM EDT 7:12 PM EDT
Civil Twilight 6:23 AM EDT 7:39 PM EDT
Nautical Twilight 5:52 AM EDT 8:10 PM EDT
Astronomical Twilight 5:19 AM EDT 8:42 PM EDT
Moon 12:50 AM EDT 3:18 PM EDT
Length of Visible Light 13h 15m
Length of Day
12h 22m
Tomorrow will be 2m 32s shorter.
Waning Crescent, 33% of the Moon is Illuminated
Today
Waning Crescent
Sep 24
New
Oct 1
First Quarter
Oct 8
Full
Oct 15
Last Quarter

Today's Extremes

State Highs State Lows

Community

WunderPhotos

Upload Photos

1,754,139 photos uploaded!

Nearby

Snow Depth

Station Depth Elevation
No new snow has been reported.

Earthquake Activity

City Distance Mag. Time & Date
No recent earthquake activity has been reported nearby.
Minimum magnitude displayed is 2.5.

Coastal Water Temperatures

Place Temperature
Baltimore, MD 78.1 °F
Tolchester Beach, MD 73.9 °F
Washington, DC 75.0 °F

Nearby Weather Stations